Velserdiep — PBLP — position and weather

sailwx.info

Track history (hours):
 
Tides and Currents Weather Stations Pressure Air Temp Water Temp Dewpoint Dewpoint Depression Visibility Wind Speed Wind Dir Waves Ship Positions

Velserdiep

Last reported at 2014-Oct-20 17:22 UTC. Time now 2014-Oct-25 16:55 UTC.
Position N 36°51' E 005°50'.

Length 120 m; draft 6.9 m.

Type: Cargo ship. MMSI: 244484000.

Date/timePositionNaut miles runAvg speedWind from/ knotsBaromVisibWave heightAir tempDewpointWater temp
2014-Oct-20 17:22N 36°51' E 005°50'0 0.0
2014-Oct-20 08:11N 36°51' E 005°50'274 8.7
2014-Oct-19 00:33N 36°40' E 000°08'1111.2
2014-Oct-18 23:33N 36°38' W 000°05'1311.1
2014-Oct-18 22:23N 36°35' W 000°21'2010.9
2014-Oct-18 20:33N 36°30' W 000°45'21811.5
2014-Oct-18 01:31N 35°56' W 005°13'5 5.1
2014-Oct-18 00:31N 35°54' W 005°18'0 0.0
2014-Oct-17 23:31N 35°54' W 005°18'0 0.0
2014-Oct-17 22:31N 35°54' W 005°18'2 1.6
2014-Oct-17 21:34N 35°55' W 005°19'8 8.0
2014-Oct-17 20:34N 35°56' W 005°29'210 9.0
2014-Oct-16 21:15N 37°39' W 009°18'710.7
2014-Oct-16 20:33N 37°46' W 009°14'1110.7
2014-Oct-16 19:33N 37°56' W 009°08'1111.0
2014-Oct-16 18:33N 38°06' W 009°03'1110.7
2014-Oct-16 17:32N 38°17' W 009°00'1110.7
2014-Oct-16 16:33N 38°27' W 008°58'6 5.1
2014-Oct-16 15:23N 38°31' W 008°53'0 0.0
2014-Oct-15 22:10N 38°31' W 008°53'0 0.0
2014-Oct-15 13:31N 38°31' W 008°53'0 0.0
2014-Oct-15 08:07N 38°31' W 008°53'0 0.0
2014-Oct-14 19:28N 38°31' W 008°53'0 0.0
2014-Oct-14 17:33N 38°31' W 008°53'1 0.6
2014-Oct-14 16:28N 38°31' W 008°53'0 0.0
2014-Oct-14 15:28N 38°31' W 008°53'0 0.0
2014-Oct-14 14:22N 38°31' W 008°53'0 0.1
2014-Oct-14 13:28N 38°31' W 008°53'0 0.1
2014-Oct-14 12:16N 38°31' W 008°53'0 0.1
2014-Oct-14 11:34N 38°31' W 008°54'0 0.0
2014-Oct-14 10:34N 38°31' W 008°54'0 0.0
2014-Oct-14 09:33N 38°31' W 008°54'0 0.0
2014-Oct-14 08:21N 38°31' W 008°54'0 0.0
2014-Oct-14 07:33N 38°31' W 008°54'0 0.1
2014-Oct-14 05:27N 38°31' W 008°53'0 0.0
2014-Oct-14 04:09N 38°31' W 008°53'0 0.0
2014-Oct-14 00:12N 38°31' W 008°53'0 0.1
2014-Oct-13 23:18N 38°31' W 008°54'0 0.1
2014-Oct-13 22:33N 38°31' W 008°54'0 0.0
2014-Oct-13 21:33N 38°31' W 008°54'0 0.0
2014-Oct-13 20:27N 38°31' W 008°54'0 0.0
2014-Oct-13 19:27N 38°31' W 008°54'0 0.1
2014-Oct-13 18:33N 38°31' W 008°53'0 0.0
2014-Oct-13 17:33N 38°31' W 008°53'0 0.0
2014-Oct-13 15:30N 38°31' W 008°53'0 0.0
2014-Oct-13 14:33N 38°31' W 008°53'0 0.0
2014-Oct-13 13:30N 38°31' W 008°53'0 0.0
2014-Oct-13 12:30N 38°31' W 008°54'0 0.0
2014-Oct-13 11:24N 38°31' W 008°54'0 0.0
2014-Oct-13 10:30N 38°31' W 008°54'0 0.0
2014-Oct-13 09:30N 38°31' W 008°54'0 0.0
2014-Oct-13 08:33N 38°31' W 008°54'0 0.0
2014-Oct-13 07:24N 38°31' W 008°54'0 0.1
2014-Oct-13 06:15N 38°31' W 008°53'0 0.0
2014-Oct-13 05:30N 38°31' W 008°53'0 0.0
2014-Oct-13 04:24N 38°31' W 008°53'0 0.0
2014-Oct-13 03:33N 38°31' W 008°53'0 0.0
2014-Oct-13 02:33N 38°31' W 008°53'0 0.0
2014-Oct-13 00:33N 38°31' W 008°53'0 0.0
2014-Oct-12 21:27N 38°31' W 008°54'0 0.0
2014-Oct-12 20:32N 38°31' W 008°54'0 0.0
2014-Oct-12 19:32N 38°31' W 008°54'0 0.1
2014-Oct-12 18:17N 38°31' W 008°53'0 0.0
2014-Oct-12 17:11N 38°31' W 008°53'0 0.0
2014-Oct-12 16:26N 38°31' W 008°53'5 6.1
2014-Oct-12 15:33N 38°27' W 008°58'1010.3
2014-Oct-12 14:33N 38°17' W 009°01'10 9.6
2014-Oct-12 13:33N 38°07' W 009°03'9 9.2
2014-Oct-12 12:33N 37°59' W 009°06'9 9.4
2014-Oct-12 11:33N 37°49' W 009°08'9 9.6
2014-Oct-12 10:33N 37°40' W 009°11'10 9.6
2014-Oct-12 09:34N 37°31' W 009°13'10 9.9
2014-Oct-12 08:34N 37°21' W 009°15'43 8.6
2014-Oct-12 03:34N 36°41' W 008°55'1010.1
2014-Oct-12 02:33N 36°38' W 008°43'17111.2
2014-Oct-11 11:19N 36°02' W 005°16'  
Track history (hours):
 
Tides and Currents Weather Stations Pressure Air Temp Water Temp Dewpoint Dewpoint Depression Visibility Wind Speed Wind Dir Waves Ship Positions

Velserdiep

Last reported at 2014-Oct-20 17:22 UTC. Time now 2014-Oct-25 16:55 UTC.
Position N 36°51' E 005°50'.

Length 120 m; draft 6.9 m.

Type: Cargo ship. MMSI: 244484000.

Date/timePositionNaut miles runAvg speedWind from/ knotsBaromVisibWave heightAir tempDewpointWater temp
2014-Oct-20 17:22N 36°51' E 005°50'0 0.0
2014-Oct-20 08:11N 36°51' E 005°50'274 8.7
2014-Oct-19 00:33N 36°40' E 000°08'1111.2
2014-Oct-18 23:33N 36°38' W 000°05'1311.1
2014-Oct-18 22:23N 36°35' W 000°21'2010.9
2014-Oct-18 20:33N 36°30' W 000°45'21811.5
2014-Oct-18 01:31N 35°56' W 005°13'5 5.1
2014-Oct-18 00:31N 35°54' W 005°18'0 0.0
2014-Oct-17 23:31N 35°54' W 005°18'0 0.0
2014-Oct-17 22:31N 35°54' W 005°18'2 1.6
2014-Oct-17 21:34N 35°55' W 005°19'8 8.0
2014-Oct-17 20:34N 35°56' W 005°29'210 9.0
2014-Oct-16 21:15N 37°39' W 009°18'710.7
2014-Oct-16 20:33N 37°46' W 009°14'1110.7
2014-Oct-16 19:33N 37°56' W 009°08'1111.0
2014-Oct-16 18:33N 38°06' W 009°03'1110.7
2014-Oct-16 17:32N 38°17' W 009°00'1110.7
2014-Oct-16 16:33N 38°27' W 008°58'6 5.1
2014-Oct-16 15:23N 38°31' W 008°53'0 0.0
2014-Oct-15 22:10N 38°31' W 008°53'0 0.0
2014-Oct-15 13:31N 38°31' W 008°53'0 0.0
2014-Oct-15 08:07N 38°31' W 008°53'0 0.0
2014-Oct-14 19:28N 38°31' W 008°53'0 0.0
2014-Oct-14 17:33N 38°31' W 008°53'1 0.6
2014-Oct-14 16:28N 38°31' W 008°53'0 0.0
2014-Oct-14 15:28N 38°31' W 008°53'0 0.0
2014-Oct-14 14:22N 38°31' W 008°53'0 0.1
2014-Oct-14 13:28N 38°31' W 008°53'0 0.1
2014-Oct-14 12:16N 38°31' W 008°53'0 0.1
2014-Oct-14 11:34N 38°31' W 008°54'0 0.0
2014-Oct-14 10:34N 38°31' W 008°54'0 0.0
2014-Oct-14 09:33N 38°31' W 008°54'0 0.0
2014-Oct-14 08:21N 38°31' W 008°54'0 0.0
2014-Oct-14 07:33N 38°31' W 008°54'0 0.1
2014-Oct-14 05:27N 38°31' W 008°53'0 0.0
2014-Oct-14 04:09N 38°31' W 008°53'0 0.0
2014-Oct-14 00:12N 38°31' W 008°53'0 0.1
2014-Oct-13 23:18N 38°31' W 008°54'0 0.1
2014-Oct-13 22:33N 38°31' W 008°54'0 0.0
2014-Oct-13 21:33N 38°31' W 008°54'0 0.0
2014-Oct-13 20:27N 38°31' W 008°54'0 0.0
2014-Oct-13 19:27N 38°31' W 008°54'0 0.1
2014-Oct-13 18:33N 38°31' W 008°53'0 0.0
2014-Oct-13 17:33N 38°31' W 008°53'0 0.0
2014-Oct-13 15:30N 38°31' W 008°53'0 0.0
2014-Oct-13 14:33N 38°31' W 008°53'0 0.0
2014-Oct-13 13:30N 38°31' W 008°53'0 0.0
2014-Oct-13 12:30N 38°31' W 008°54'0 0.0
2014-Oct-13 11:24N 38°31' W 008°54'0 0.0
2014-Oct-13 10:30N 38°31' W 008°54'0 0.0
2014-Oct-13 09:30N 38°31' W 008°54'0 0.0
2014-Oct-13 08:33N 38°31' W 008°54'0 0.0
2014-Oct-13 07:24N 38°31' W 008°54'0 0.1
2014-Oct-13 06:15N 38°31' W 008°53'0 0.0
2014-Oct-13 05:30N 38°31' W 008°53'0 0.0
2014-Oct-13 04:24N 38°31' W 008°53'0 0.0
2014-Oct-13 03:33N 38°31' W 008°53'0 0.0
2014-Oct-13 02:33N 38°31' W 008°53'0 0.0
2014-Oct-13 00:33N 38°31' W 008°53'0 0.0
2014-Oct-12 21:27N 38°31' W 008°54'0 0.0
2014-Oct-12 20:32N 38°31' W 008°54'0 0.0
2014-Oct-12 19:32N 38°31' W 008°54'0 0.1
2014-Oct-12 18:17N 38°31' W 008°53'0 0.0
2014-Oct-12 17:11N 38°31' W 008°53'0 0.0
2014-Oct-12 16:26N 38°31' W 008°53'5 6.1
2014-Oct-12 15:33N 38°27' W 008°58'1010.3
2014-Oct-12 14:33N 38°17' W 009°01'10 9.6
2014-Oct-12 13:33N 38°07' W 009°03'9 9.2
2014-Oct-12 12:33N 37°59' W 009°06'9 9.4
2014-Oct-12 11:33N 37°49' W 009°08'9 9.6
2014-Oct-12 10:33N 37°40' W 009°11'10 9.6
2014-Oct-12 09:34N 37°31' W 009°13'10 9.9
2014-Oct-12 08:34N 37°21' W 009°15'43 8.6
2014-Oct-12 03:34N 36°41' W 008°55'1010.1
2014-Oct-12 02:33N 36°38' W 008°43'17111.2
2014-Oct-11 11:19N 36°02' W 005°16'  

Dump ship's entire track history